Terminal Aerodrome Forecast
Issued by NWS Amarillo, TX

Home | Current Version | Previous Version | Text Only | Print | Product List | Glossary On
Versions: 1 2 3 4 5 6 7 8 9 10 11 12 13 14 15 16 17
000
FTUS44 KAMA 280100 AAA
TAFAMA
TAF AMD
KAMA 280100Z 2801/2824 14016KT P6SM VCSH SCT080
     FM281000 15015KT P6SM VCSH SCT004 BKN010
     FM281600 18016G24KT 6SM -TSRA BKN020CB=

USA.gov is the U.S. government's official web portal to all federal, state and local government web resources and services.